Time;durP1;ratioP1;P1;durP2;ratioP2;P2;SDS_P1;SDS_P2;PMS_P1;PMS_P2;Temp;Humidity;BMP_temperature;BMP_pressure;BME280_temperature;BME280_humidity;BME280_pressure;Samples;Min_cycle;Max_cycle;Signal;HPM_P1;HPM_P2
2023/09/08 00:01:47;;;;;;;2.90;2.70;;;;;;;23.89;64.86;97770.00;5032562;28;20206;-24
2023/09/08 00:04:14;;;;;;;2.60;2.40;;;;;;;23.89;65.12;97766.59;5032460;28;20297;-23
2023/09/08 00:06:41;;;;;;;2.93;2.67;;;;;;;23.89;65.13;97777.69;5030815;28;20304;-24
2023/09/08 00:09:08;;;;;;;3.37;3.07;;;;;;;23.89;64.94;97771.72;5024282;28;20229;-24
2023/09/08 00:11:34;;;;;;;2.60;2.40;;;;;;;23.90;65.20;97778.59;5032201;28;20201;-24
2023/09/08 00:14:01;;;;;;;2.27;2.13;;;;;;;23.88;65.06;97773.41;5026368;28;20198;-24
2023/09/08 00:16:29;;;;;;;2.50;2.30;;;;;;;23.89;65.00;97771.72;5031025;28;20226;-24
2023/09/08 00:18:59;;;;;;;2.83;2.30;;;;;;;23.89;65.13;97779.41;5032402;28;20663;-24
2023/09/08 00:21:26;;;;;;;2.60;2.40;;;;;;;23.89;64.89;97780.28;5027849;28;20742;-24
2023/09/08 00:23:53;;;;;;;2.90;2.70;;;;;;;23.89;65.13;97771.72;5032366;28;20198;-23
2023/09/08 00:26:20;;;;;;;2.60;2.40;;;;;;;23.89;64.77;97780.28;5032419;28;20712;-24
2023/09/08 00:28:47;;;;;;;2.50;2.30;;;;;;;23.88;65.00;97777.66;5030073;28;20233;-23
2023/09/08 00:31:13;;;;;;;2.70;2.50;;;;;;;23.88;64.92;97773.41;5026371;28;20248;-23
2023/09/08 00:33:42;;;;;;;2.70;2.50;;;;;;;23.88;65.24;97770.84;5030555;28;20228;-24
2023/09/08 00:36:09;;;;;;;2.33;2.17;;;;;;;23.89;65.56;97770.00;5027276;28;20229;-24
2023/09/08 00:38:36;;;;;;;2.50;2.30;;;;;;;23.89;65.21;97766.59;5028483;28;20197;-23
2023/09/08 00:41:04;;;;;;;2.83;2.40;;;;;;;23.89;65.23;97767.44;5019938;28;20222;-24
2023/09/08 00:43:31;;;;;;;2.50;2.30;;;;;;;23.89;64.98;97770.00;5028392;28;20201;-24
2023/09/08 00:45:58;;;;;;;3.00;2.80;;;;;;;23.88;65.43;97763.16;5049723;22;20253;-26
2023/09/08 00:48:26;;;;;;;3.33;3.03;;;;;;;23.89;64.99;97772.56;5037501;28;20204;-26
2023/09/08 00:50:52;;;;;;;2.30;2.13;;;;;;;23.87;65.04;97763.09;5039286;28;20227;-26
2023/09/08 00:53:19;;;;;;;3.13;2.93;;;;;;;23.89;64.97;97766.59;5052257;28;20208;-26
2023/09/08 00:55:46;;;;;;;2.60;2.40;;;;;;;23.85;65.08;97762.19;5033896;28;20659;-26
2023/09/08 00:58:12;;;;;;;2.83;2.63;;;;;;;23.88;65.44;97764.81;5051826;28;20617;-26
2023/09/08 01:00:39;;;;;;;2.47;2.27;;;;;;;23.87;64.93;97771.69;5050126;28;20228;-26
2023/09/08 01:03:05;;;;;;;2.43;2.23;;;;;;;23.87;65.07;97769.13;5050997;28;20192;-26
2023/09/08 01:05:35;;;;;;;2.80;2.60;;;;;;;23.87;65.13;97765.66;5050947;28;20727;-26
2023/09/08 01:08:02;;;;;;;2.60;2.37;;;;;;;23.86;65.21;97761.38;5051219;28;20236;-26
2023/09/08 01:10:29;;;;;;;2.47;2.30;;;;;;;23.75;65.11;97747.41;5017500;28;20254;-26
2023/09/08 01:12:55;;;;;;;2.60;2.40;;;;;;;23.87;65.17;97757.97;5033518;28;20288;-26
2023/09/08 01:15:22;;;;;;;2.30;2.10;;;;;;;23.87;64.95;97763.09;5051867;28;20280;-26
2023/09/08 01:17:49;;;;;;;2.60;2.40;;;;;;;23.21;64.96;97652.84;5050849;28;20587;-26
2023/09/08 01:20:22;;;;;;;2.60;2.40;;;;;;;23.86;64.92;97758.81;5033221;28;20227;-26
2023/09/08 01:23:16;;;;;;;2.70;2.50;;;;;;;23.86;65.26;97759.66;5016440;28;20287;-26
2023/09/08 01:25:50;;;;;;;2.73;2.40;;;;;;;23.86;64.99;97758.81;5049370;28;20640;-26
2023/09/08 01:28:17;;;;;;;2.67;2.47;;;;;;;23.86;65.10;97763.94;5051618;28;20203;-26
2023/09/08 01:30:44;;;;;;;2.47;2.27;;;;;;;23.85;65.34;97765.63;5017180;28;20193;-26
2023/09/08 01:33:11;;;;;;;2.57;2.37;;;;;;;23.85;65.31;97763.06;5033104;28;20250;-26
2023/09/08 01:35:37;;;;;;;2.57;2.37;;;;;;;23.86;65.16;97763.94;5017544;28;20209;-26
2023/09/08 01:38:04;;;;;;;2.60;2.40;;;;;;;23.84;65.33;97760.47;5051433;28;20262;-26
2023/09/08 01:40:31;;;;;;;2.70;2.50;;;;;;;23.86;65.39;97758.81;5017211;28;20213;-26
2023/09/08 01:42:57;;;;;;;2.70;2.50;;;;;;;23.81;65.44;97763.84;5050645;28;20640;-26
2023/09/08 01:45:24;;;;;;;2.43;2.23;;;;;;;23.86;65.27;97763.94;5051329;28;20259;-26
2023/09/08 01:47:50;;;;;;;2.47;2.30;;;;;;;23.86;65.32;97759.66;5050797;28;20224;-26
2023/09/08 01:50:21;;;;;;;2.43;2.23;;;;;;;23.86;65.25;97759.66;5050419;28;20197;-26
2023/09/08 01:52:48;;;;;;;2.60;2.40;;;;;;;23.87;65.08;97761.41;5050933;28;20209;-26
2023/09/08 01:55:16;;;;;;;3.57;2.30;;;;;;;23.87;65.22;97757.97;5051105;28;20717;-26
2023/09/08 01:57:43;;;;;;;2.20;2.10;;;;;;;23.87;65.22;97750.28;5050827;28;20224;-26
2023/09/08 02:00:13;;;;;;;2.70;2.50;;;;;;;23.86;65.14;97753.69;5050966;28;20274;-26
2023/09/08 02:02:39;;;;;;;2.63;2.43;;;;;;;23.86;65.16;97754.53;5050535;28;20695;-26
2023/09/08 02:05:06;;;;;;;2.20;2.10;;;;;;;23.86;65.53;97741.69;5051219;28;20193;-26
2023/09/08 02:07:33;;;;;;;2.67;2.47;;;;;;;23.87;65.46;97745.13;5050809;28;20221;-26
2023/09/08 02:09:59;;;;;;;2.33;2.23;;;;;;;23.86;65.45;97751.97;5051013;28;20193;-26
2023/09/08 02:12:26;;;;;;;2.60;2.40;;;;;;;23.87;65.28;97750.28;5050931;28;20193;-26
2023/09/08 02:14:53;;;;;;;2.77;2.57;;;;;;;23.87;65.43;97742.56;5050239;28;20675;-26
2023/09/08 02:17:19;;;;;;;2.70;2.50;;;;;;;23.87;65.23;97748.59;5050995;28;20213;-26
2023/09/08 02:19:46;;;;;;;2.27;2.17;;;;;;;23.87;64.98;97743.44;5050650;28;20303;-26
2023/09/08 02:22:13;;;;;;;2.97;2.67;;;;;;;23.85;65.32;97739.97;5050608;28;20564;-26
2023/09/08 02:24:40;;;;;;;2.40;2.20;;;;;;;23.87;65.53;97737.44;5034656;28;20239;-26
2023/09/08 02:27:06;;;;;;;2.43;2.23;;;;;;;23.87;65.38;97745.13;5050727;28;20220;-26
2023/09/08 02:29:33;;;;;;;2.30;2.20;;;;;;;23.87;65.27;97748.59;5049803;28;20204;-26
2023/09/08 02:31:59;;;;;;;2.53;2.33;;;;;;;23.87;65.38;97743.44;5050928;28;20703;-26
2023/09/08 02:34:26;;;;;;;2.70;2.50;;;;;;;23.87;65.17;97740.00;5054907;28;20621;-26
2023/09/08 02:36:52;;;;;;;2.50;2.30;;;;;;;23.87;65.12;97740.00;5054000;28;20229;-26
2023/09/08 02:39:19;;;;;;;2.70;2.50;;;;;;;23.81;65.36;97729.59;5054329;28;20681;-26
2023/09/08 02:41:46;;;;;;;2.33;2.20;;;;;;;23.87;65.26;97742.56;5053958;28;20334;-26
2023/09/08 02:44:12;;;;;;;2.50;2.30;;;;;;;23.86;65.25;97736.56;5053404;28;20197;-26
2023/09/08 02:46:39;;;;;;;2.60;2.40;;;;;;;23.87;65.20;97735.75;5053764;28;20278;-26
2023/09/08 02:49:06;;;;;;;2.90;2.70;;;;;;;23.86;65.51;97731.41;5054733;28;20324;-26
2023/09/08 02:51:32;;;;;;;2.57;2.30;;;;;;;23.86;65.20;97728.84;5053515;28;20618;-26
2023/09/08 02:53:59;;;;;;;2.50;2.30;;;;;;;23.88;65.32;97731.47;5054101;28;20633;-26
2023/09/08 02:56:26;;;;;;;2.50;2.30;;;;;;;23.87;65.32;97737.44;5054012;28;20248;-26
2023/09/08 02:58:52;;;;;;;2.23;2.13;;;;;;;23.87;65.17;97734.88;5052218;28;20202;-26
2023/09/08 03:01:20;;;;;;;2.50;2.30;;;;;;;23.87;65.33;97735.75;5052462;28;20225;-26
2023/09/08 03:03:47;;;;;;;2.57;2.37;;;;;;;23.88;65.31;97741.72;5053542;28;20201;-26
2023/09/08 03:06:15;;;;;;;2.60;2.40;;;;;;;23.87;65.24;97737.44;5053959;28;20634;-26
2023/09/08 03:08:41;;;;;;;2.40;2.20;;;;;;;23.88;65.22;97744.28;5052984;28;20652;-26
2023/09/08 03:11:08;;;;;;;2.50;2.30;;;;;;;23.88;65.20;97741.72;5053668;28;20189;-26
2023/09/08 03:13:35;;;;;;;2.30;2.20;;;;;;;23.87;65.13;97740.88;5053257;28;20342;-26
2023/09/08 03:16:05;;;;;;;2.70;2.50;;;;;;;23.87;65.37;97747.69;5051293;28;20247;-26
2023/09/08 03:18:36;;;;;;;2.20;2.10;;;;;;;23.87;65.30;97746.00;5053078;28;20208;-26
2023/09/08 03:21:09;;;;;;;2.40;2.20;;;;;;;23.87;65.26;97747.69;5052347;28;20216;-26
2023/09/08 03:23:39;;;;;;;2.50;2.30;;;;;;;23.86;65.42;97743.41;5053571;28;20263;-26
2023/09/08 03:26:05;;;;;;;2.50;2.30;;;;;;;23.86;65.11;97743.41;5048499;28;20253;-26
2023/09/08 03:28:32;;;;;;;2.50;2.30;;;;;;;23.86;65.38;97746.81;5052290;28;20284;-26
2023/09/08 03:31:00;;;;;;;2.80;2.50;;;;;;;23.73;65.40;97726.84;5045700;28;20207;-26
2023/09/08 03:33:27;;;;;;;2.70;2.50;;;;;;;23.85;65.17;97747.66;5034745;28;20266;-26
2023/09/08 03:35:55;;;;;;;2.50;2.30;;;;;;;23.85;65.20;97751.91;5051440;28;20255;-26
2023/09/08 03:38:22;;;;;;;2.37;2.17;;;;;;;23.86;65.40;97756.25;5052657;28;20676;-26
2023/09/08 03:40:48;;;;;;;2.53;2.33;;;;;;;23.85;65.43;97751.91;5052987;28;20252;-26
2023/09/08 03:43:15;;;;;;;2.40;2.20;;;;;;;23.84;65.36;97751.06;5051097;28;20623;-26
2023/09/08 03:45:42;;;;;;;4.50;2.90;;;;;;;23.83;64.73;97751.03;5048075;28;20259;-26
2023/09/08 03:48:08;;;;;;;4.30;2.97;;;;;;;23.83;64.54;97758.75;5052906;28;20711;-26
2023/09/08 03:50:35;;;;;;;4.40;3.20;;;;;;;23.83;64.79;97756.19;5049403;28;20204;-26
2023/09/08 03:53:01;;;;;;;2.53;2.30;;;;;;;23.82;64.57;97746.72;5052420;28;20225;-26
2023/09/08 03:55:28;;;;;;;3.20;2.90;;;;;;;23.81;64.94;97745.88;5051814;28;20687;-26
2023/09/08 03:57:54;;;;;;;2.83;2.53;;;;;;;23.81;65.24;97753.56;5052001;28;20217;-26
2023/09/08 04:00:22;;;;;;;2.97;2.70;;;;;;;23.83;65.24;97745.91;5052438;28;20212;-26
2023/09/08 04:02:49;;;;;;;3.40;3.10;;;;;;;23.81;65.36;97739.84;5050668;28;20709;-26
2023/09/08 04:05:18;;;;;;;2.70;2.50;;;;;;;23.81;65.37;97743.31;5051264;28;20667;-26
2023/09/08 04:07:45;;;;;;;3.00;2.70;;;;;;;23.82;65.23;97736.44;5049764;28;20603;-26
2023/09/08 04:10:12;;;;;;;2.73;2.30;;;;;;;23.82;65.29;97744.16;5048149;28;20201;-26
2023/09/08 04:12:41;;;;;;;2.60;2.40;;;;;;;23.82;65.17;97746.72;5052109;28;20556;-26
2023/09/08 04:15:08;;;;;;;2.50;2.30;;;;;;;23.83;65.50;97749.31;5049013;28;20212;-26
2023/09/08 04:17:36;;;;;;;3.20;2.90;;;;;;;23.83;65.57;97746.75;5050896;28;20251;-26
2023/09/08 04:20:06;;;;;;;4.23;2.80;;;;;;;23.84;65.60;97747.63;5052239;28;20205;-26
2023/09/08 04:22:33;;;;;;;2.60;2.40;;;;;;;23.85;65.49;97741.66;5048793;28;20307;-26
2023/09/08 04:25:00;;;;;;;2.80;2.30;;;;;;;23.84;65.31;97748.50;5051612;28;20220;-26
2023/09/08 04:27:26;;;;;;;3.33;2.90;;;;;;;23.84;65.07;97748.50;5052146;28;20221;-26
2023/09/08 04:29:53;;;;;;;2.70;2.50;;;;;;;23.84;65.43;97748.50;5052212;28;20659;-26
2023/09/08 04:32:19;;;;;;;6.63;2.73;;;;;;;23.85;65.43;97750.22;5050540;28;20288;-26
2023/09/08 04:34:46;;;;;;;2.67;2.47;;;;;;;23.86;65.37;97761.38;5050777;28;20200;-26
2023/09/08 04:37:13;;;;;;;3.00;2.70;;;;;;;23.84;64.86;97758.78;5043329;28;20260;-26
2023/09/08 04:39:40;;;;;;;4.70;3.93;;;;;;;23.84;61.93;97755.34;5051379;28;20215;-26
2023/09/08 04:42:07;;;;;;;5.93;4.70;;;;;;;23.83;60.39;97758.75;5051869;28;20362;-26
2023/09/08 04:44:34;;;;;;;5.97;4.83;;;;;;;23.80;59.29;97756.94;5051308;28;20201;-26
2023/09/08 04:47:01;;;;;;;11.90;5.30;;;;;;;23.76;59.52;97762.84;5043752;28;20298;-26
2023/09/08 04:49:28;;;;;;;8.83;5.33;;;;;;;23.77;59.41;97767.13;5032973;28;20663;-26
2023/09/08 04:51:55;;;;;;;11.00;5.67;;;;;;;23.77;59.42;97763.72;5050776;28;20197;-26
2023/09/08 04:54:24;;;;;;;12.43;5.40;;;;;;;23.78;59.32;97771.47;5051137;28;20233;-26
2023/09/08 04:56:50;;;;;;;14.53;5.70;;;;;;;23.78;59.26;97771.47;5051624;28;20220;-26
2023/09/08 04:59:17;;;;;;;16.57;5.80;;;;;;;23.77;58.75;97772.28;5051605;28;20621;-26
2023/09/08 05:01:44;;;;;;;10.73;6.13;;;;;;;23.77;58.71;97769.72;5051566;28;20248;-26
2023/09/08 05:04:11;;;;;;;10.07;5.87;;;;;;;23.77;58.47;97772.28;5051528;28;20205;-26
2023/09/08 05:06:38;;;;;;;12.93;5.93;;;;;;;23.77;58.93;97774.84;5051407;28;20248;-26
2023/09/08 05:09:04;;;;;;;10.50;5.97;;;;;;;23.77;59.21;97774.84;5051694;28;20247;-26
2023/09/08 05:11:31;;;;;;;9.63;6.13;;;;;;;23.77;59.70;97784.25;5051140;28;20204;-26
2023/09/08 05:13:58;;;;;;;7.77;5.20;;;;;;;23.77;59.93;97774.00;5051254;28;20201;-26
2023/09/08 05:16:37;;;;;;;8.60;5.50;;;;;;;23.77;60.23;97779.97;5051430;28;20220;-26
2023/09/08 05:19:04;;;;;;;8.60;5.80;;;;;;;23.79;60.47;97782.56;5051110;28;20212;-26
2023/09/08 05:21:31;;;;;;;10.60;5.67;;;;;;;23.79;60.65;97777.44;5050894;28;20224;-26
2023/09/08 05:23:58;;;;;;;8.93;5.00;;;;;;;23.80;61.03;97781.78;5051458;28;20212;-26
2023/09/08 05:26:24;;;;;;;6.70;5.50;;;;;;;23.79;61.38;97780.00;5051302;28;20290;-26
2023/09/08 05:28:51;;;;;;;7.40;5.23;;;;;;;23.80;61.28;97785.19;5051587;28;20569;-26
2023/09/08 05:31:17;;;;;;;7.37;5.30;;;;;;;23.81;61.40;97786.06;5050694;28;20259;-26
2023/09/08 05:33:44;;;;;;;6.67;5.30;;;;;;;23.81;61.53;97783.50;5051456;28;20208;-26
2023/09/08 05:36:11;;;;;;;7.77;5.40;;;;;;;23.81;62.00;97781.81;5051551;28;20220;-26
2023/09/08 05:38:41;;;;;;;6.40;4.83;;;;;;;23.83;62.03;97792.09;5051171;28;20254;-26
2023/09/08 05:41:07;;;;;;;7.93;5.30;;;;;;;23.82;62.16;97798.06;5050963;28;20213;-26
2023/09/08 05:43:34;;;;;;;9.07;5.07;;;;;;;23.83;61.85;97799.81;5049587;28;20576;-26
2023/09/08 05:46:01;;;;;;;7.20;4.80;;;;;;;23.82;62.12;97787.78;5049094;28;20327;-26
2023/09/08 05:48:28;;;;;;;7.40;5.37;;;;;;;23.82;62.16;97798.94;5051216;28;20278;-26
2023/09/08 05:50:54;;;;;;;7.20;4.57;;;;;;;23.83;62.06;97803.22;5050422;28;20664;-26
2023/09/08 05:53:21;;;;;;;5.23;4.70;;;;;;;23.83;62.36;97794.69;5048089;28;20228;-26
2023/09/08 05:55:48;;;;;;;6.50;5.10;;;;;;;23.83;62.35;97786.97;5050507;28;20201;-26
2023/09/08 05:58:15;;;;;;;5.67;4.90;;;;;;;23.84;62.24;97796.41;5050555;28;20211;-26
2023/09/08 06:00:41;;;;;;;5.80;5.03;;;;;;;23.84;62.01;97804.97;5050603;28;20243;-26
2023/09/08 06:03:08;;;;;;;11.97;5.43;;;;;;;23.84;61.79;97799.84;5031594;28;20220;-26
2023/09/08 06:05:35;;;;;;;10.93;5.10;;;;;;;23.84;62.04;97810.13;5050219;28;20643;-26
2023/09/08 06:08:01;;;;;;;8.33;5.20;;;;;;;23.85;62.13;97808.41;5053604;28;20204;-26
2023/09/08 06:10:33;;;;;;;7.10;5.03;;;;;;;23.84;62.26;97810.13;5053911;28;20250;-26
2023/09/08 06:13:01;;;;;;;10.53;5.30;;;;;;;23.86;61.52;97815.28;5052259;28;20201;-26
2023/09/08 06:15:28;;;;;;;8.10;5.60;;;;;;;23.84;61.04;97812.69;5054757;28;20209;-26
2023/09/08 06:17:54;;;;;;;12.30;5.73;;;;;;;23.85;60.85;97823.78;5054929;28;20366;-26
2023/09/08 06:20:21;;;;;;;7.70;5.50;;;;;;;23.84;60.93;97812.69;5050213;28;20219;-26
2023/09/08 06:22:48;;;;;;;7.87;5.20;;;;;;;23.84;61.00;97817.81;5054795;28;20235;-26
2023/09/08 06:25:16;;;;;;;7.63;5.67;;;;;;;23.85;61.46;97816.09;5054642;28;20256;-26
2023/09/08 06:27:42;;;;;;;5.93;5.27;;;;;;;23.85;61.00;97816.09;5052544;28;20219;-26
2023/09/08 06:30:09;;;;;;;6.70;5.70;;;;;;;23.83;61.28;97816.06;5054453;28;20200;-26
2023/09/08 06:32:36;;;;;;;8.30;5.73;;;;;;;23.84;61.10;97816.94;5054143;28;20734;-26
2023/09/08 06:35:03;;;;;;;7.70;5.07;;;;;;;23.83;61.51;97826.31;5054708;28;20204;-26
2023/09/08 06:37:35;;;;;;;9.57;5.20;;;;;;;23.83;61.62;97823.75;5054581;28;20224;-26
2023/09/08 06:40:01;;;;;;;6.70;5.17;;;;;;;23.84;61.98;97825.50;5054419;28;20239;-26
2023/09/08 06:42:28;;;;;;;6.83;5.10;;;;;;;23.85;61.84;97818.66;5053713;28;20295;-27
2023/09/08 06:44:54;;;;;;;11.37;5.53;;;;;;;23.84;61.34;97819.50;5053827;28;20237;-26
2023/09/08 06:47:21;;;;;;;6.60;5.30;;;;;;;23.83;61.46;97821.19;5067927;23;20691;-26
2023/09/08 06:49:48;;;;;;;9.40;5.00;;;;;;;23.84;61.24;97825.50;5045106;28;20209;-25
2023/09/08 06:52:14;;;;;;;5.30;4.77;;;;;;;23.84;61.85;97825.50;5046842;28;20663;-24
2023/09/08 06:54:41;;;;;;;6.77;5.23;;;;;;;23.85;61.88;97827.25;5042431;28;20297;-26
2023/09/08 06:57:07;;;;;;;6.60;4.80;;;;;;;23.85;62.14;97824.66;5043806;28;20742;-26
2023/09/08 06:59:34;;;;;;;7.17;5.07;;;;;;;23.85;62.08;97826.38;5041700;28;20197;-24
2023/09/08 07:02:01;;;;;;;7.60;4.93;;;;;;;23.86;62.52;97823.84;5042082;28;20221;-25
2023/09/08 07:04:28;;;;;;;5.13;4.63;;;;;;;23.85;62.32;97823.78;5041727;28;20204;-24
2023/09/08 07:06:55;;;;;;;5.50;4.90;;;;;;;23.86;62.61;97823.84;5044389;28;20528;-25
2023/09/08 07:09:21;;;;;;;5.60;4.70;;;;;;;23.87;62.47;97827.28;5044694;28;20664;-28
2023/09/08 07:11:48;;;;;;;5.77;5.17;;;;;;;23.87;62.80;97817.00;5041785;28;20664;-24
2023/09/08 07:14:14;;;;;;;5.97;4.50;;;;;;;23.88;62.51;97821.31;5045825;28;20197;-25
2023/09/08 07:16:41;;;;;;;4.93;4.43;;;;;;;23.81;62.70;97807.47;5050479;28;20650;-26
2023/09/08 07:19:08;;;;;;;5.20;4.70;;;;;;;23.88;62.69;97813.59;5042951;28;20201;-24
2023/09/08 07:21:34;;;;;;;5.13;4.50;;;;;;;23.89;62.76;97817.94;5041883;28;20253;-26
2023/09/08 07:24:01;;;;;;;6.37;4.63;;;;;;;23.89;62.59;97810.22;5053675;28;20622;-25
2023/09/08 07:26:27;;;;;;;5.60;4.63;;;;;;;23.90;62.90;97811.94;5045090;28;20227;-24
2023/09/08 07:28:54;;;;;;;8.07;4.70;;;;;;;23.89;62.95;97817.94;5046225;28;20205;-25
2023/09/08 07:31:20;;;;;;;8.47;5.53;;;;;;;23.88;62.66;97809.34;5039957;28;20248;-24
2023/09/08 07:33:47;;;;;;;8.13;5.37;;;;;;;23.88;62.63;97811.91;5046426;28;20292;-24
2023/09/08 07:36:15;;;;;;;8.57;5.03;;;;;;;23.88;62.68;97811.91;5050531;28;20208;-24
2023/09/08 07:38:41;;;;;;;15.03;5.70;;;;;;;23.88;62.61;97814.47;5038835;28;20312;-26
2023/09/08 07:41:08;;;;;;;12.20;5.73;;;;;;;23.88;62.76;97817.06;5047442;28;20630;-28
2023/09/08 07:43:37;;;;;;;14.47;5.70;;;;;;;23.86;62.61;97816.13;5051990;28;20739;-25
2023/09/08 07:46:04;;;;;;;13.57;5.40;;;;;;;23.87;63.05;97810.19;5051777;28;20204;-28
2023/09/08 07:48:31;;;;;;;13.83;5.33;;;;;;;23.87;62.79;97819.56;5040347;28;20323;-26
2023/09/08 07:50:59;;;;;;;14.13;6.10;;;;;;;23.87;62.97;97817.88;5050503;28;20213;-25
2023/09/08 07:53:27;;;;;;;9.47;5.10;;;;;;;23.86;62.97;97813.56;5051601;28;20208;-24
2023/09/08 07:55:53;;;;;;;11.50;5.77;;;;;;;23.87;63.07;97812.75;5043335;28;20205;-24
2023/09/08 07:58:21;;;;;;;7.80;5.30;;;;;;;23.87;63.13;97817.88;5048926;28;20982;-25
2023/09/08 08:00:48;;;;;;;10.27;5.07;;;;;;;23.86;63.32;97811.00;5045532;28;20212;-25
2023/09/08 08:03:14;;;;;;;10.73;5.50;;;;;;;23.87;63.29;97811.88;5055141;28;20265;-25
2023/09/08 08:05:41;;;;;;;8.50;5.60;;;;;;;23.86;63.43;97810.16;5042334;28;20672;-25
2023/09/08 08:08:09;;;;;;;9.67;5.03;;;;;;;23.86;63.28;97820.41;5048636;28;20232;-25
2023/09/08 08:10:36;;;;;;;8.90;5.07;;;;;;;23.86;63.25;97821.25;5047848;28;20213;-28
2023/09/08 08:13:03;;;;;;;15.03;5.43;;;;;;;23.85;63.58;97806.72;5044728;28;20204;-25
2023/09/08 08:15:39;;;;;;;10.53;5.40;;;;;;;23.85;63.62;97814.41;5042003;28;20205;-25
2023/09/08 08:18:06;;;;;;;8.67;5.73;;;;;;;23.84;63.39;97812.69;5044449;28;20442;-28
2023/09/08 08:20:36;;;;;;;12.50;5.30;;;;;;;23.84;63.52;97817.81;5046616;28;20205;-24
2023/09/08 08:23:03;;;;;;;10.33;5.53;;;;;;;23.83;63.51;97812.66;5045917;28;20595;-24
2023/09/08 08:25:30;;;;;;;8.20;5.20;;;;;;;23.85;63.35;97816.97;5049326;28;20205;-24
2023/09/08 08:27:58;;;;;;;8.27;4.83;;;;;;;23.84;63.42;97809.22;5024559;28;20232;-29
2023/09/08 08:30:24;;;;;;;9.87;4.73;;;;;;;23.84;63.54;97814.38;5051226;28;20247;-24
2023/09/08 08:32:53;;;;;;;8.37;5.00;;;;;;;23.78;63.82;97804.81;5031648;28;20212;-24
2023/09/08 08:35:20;;;;;;;7.67;4.80;;;;;;;23.85;63.71;97808.41;5051071;28;20655;-26
2023/09/08 08:37:46;;;;;;;7.23;4.97;;;;;;;23.84;63.57;97806.66;5050139;28;20286;-24
2023/09/08 08:40:13;;;;;;;8.83;5.10;;;;;;;23.83;63.47;97805.78;5052532;28;20644;-25
2023/09/08 08:42:40;;;;;;;7.17;4.63;;;;;;;23.84;63.62;97804.97;5047994;28;20222;-26
2023/09/08 08:45:07;;;;;;;6.17;4.80;;;;;;;23.84;63.76;97804.97;5047706;28;20212;-24
2023/09/08 08:47:33;;;;;;;7.87;5.30;;;;;;;23.84;63.64;97791.25;5048101;28;20228;-27
2023/09/08 08:50:00;;;;;;;7.20;4.60;;;;;;;23.84;63.87;97801.53;5044977;28;20774;-26
2023/09/08 08:52:27;;;;;;;6.17;4.27;;;;;;;23.84;63.94;97802.41;5027851;28;20678;-25
2023/09/08 08:54:54;;;;;;;5.23;4.33;;;;;;;23.84;63.91;97799.84;5050042;28;20658;-24
2023/09/08 08:57:21;;;;;;;9.57;4.63;;;;;;;23.84;64.01;97799.84;5046559;28;20719;-23
2023/09/08 08:59:51;;;;;;;5.43;4.40;;;;;;;23.84;64.01;97792.16;5046191;28;20659;-27
2023/09/08 09:02:18;;;;;;;7.57;4.77;;;;;;;23.85;63.70;97796.44;5042852;28;20242;-24
2023/09/08 09:04:45;;;;;;;8.13;4.83;;;;;;;23.84;63.75;97802.41;5042260;28;20209;-25
2023/09/08 09:07:12;;;;;;;8.80;5.23;;;;;;;22.64;63.91;97594.13;5038645;28;20287;-26
2023/09/08 09:09:40;;;;;;;7.50;4.73;;;;;;;23.85;64.06;97800.69;5040949;28;20280;-24
2023/09/08 09:12:06;;;;;;;8.83;4.63;;;;;;;23.86;64.08;97794.75;5041079;28;20201;-25
2023/09/08 09:14:33;;;;;;;6.80;4.73;;;;;;;23.84;63.80;97784.44;5046226;28;20798;-24
2023/09/08 09:17:01;;;;;;;5.10;4.20;;;;;;;23.86;63.92;97798.16;5049864;28;20251;-24
2023/09/08 09:19:28;;;;;;;7.80;4.47;;;;;;;23.87;63.90;97792.22;5044958;28;20201;-25
2023/09/08 09:21:55;;;;;;;5.63;4.40;;;;;;;23.87;63.78;97781.94;5047296;28;20266;-27
2023/09/08 09:24:32;;;;;;;5.20;4.23;;;;;;;23.87;63.67;97779.38;5047755;28;20298;-25
2023/09/08 09:27:00;;;;;;;5.10;4.17;;;;;;;23.88;64.06;97780.22;5043434;28;20725;-27
2023/09/08 09:29:27;;;;;;;6.93;4.47;;;;;;;23.88;64.17;97781.13;5046166;28;20236;-24
2023/09/08 09:32:12;;;;;;;4.70;4.20;;;;;;;23.89;64.05;97782.00;5048024;28;20204;-26
2023/09/08 09:34:49;;;;;;;5.00;4.50;;;;;;;23.88;64.15;97775.97;5039294;28;20263;-26
2023/09/08 09:37:16;;;;;;;7.67;4.53;;;;;;;23.90;63.96;97778.59;5040989;28;20225;-26
2023/09/08 09:39:45;;;;;;;5.20;3.97;;;;;;;23.88;63.76;97773.41;5047158;28;20248;-25
2023/09/08 09:42:11;;;;;;;4.77;4.37;;;;;;;23.90;63.88;97782.03;5003369;28;20231;-25
2023/09/08 09:44:41;;;;;;;6.13;4.40;;;;;;;23.89;64.33;97772.56;5030887;28;20205;-26
2023/09/08 09:47:09;;;;;;;4.97;4.30;;;;;;;23.89;64.13;97767.44;5043938;28;20718;-24
2023/09/08 09:49:45;;;;;;;5.23;3.90;;;;;;;23.89;64.02;97769.16;5048093;28;20240;-24
2023/09/08 09:52:15;;;;;;;6.53;4.10;;;;;;;23.89;63.98;97767.44;5049035;28;20624;-25
2023/09/08 09:54:42;;;;;;;4.40;4.00;;;;;;;23.88;63.77;97775.97;5051179;28;20204;-24
2023/09/08 09:57:11;;;;;;;5.33;4.03;;;;;;;23.88;64.22;97775.09;5042106;28;20710;-24
2023/09/08 09:59:37;;;;;;;5.10;4.30;;;;;;;23.89;64.21;97767.44;5030819;28;20341;-24
2023/09/08 10:02:04;;;;;;;5.63;3.73;;;;;;;23.88;64.22;97775.97;5050843;28;20227;-24
2023/09/08 10:04:30;;;;;;;5.50;4.47;;;;;;;23.90;63.83;97776.00;5031409;28;20204;-25
2023/09/08 10:06:58;;;;;;;4.60;4.17;;;;;;;23.89;64.23;97766.59;5040027;28;20791;-24
2023/09/08 10:09:24;;;;;;;7.57;4.40;;;;;;;23.89;64.07;97770.00;5030438;28;20196;-23
2023/09/08 10:11:51;;;;;;;4.57;4.17;;;;;;;23.70;64.08;97734.47;5045944;28;20204;-24
2023/09/08 10:14:18;;;;;;;4.30;3.83;;;;;;;23.90;64.32;97765.75;5026950;28;20197;-24
2023/09/08 10:16:49;;;;;;;5.67;4.20;;;;;;;23.89;64.17;97762.31;5042028;28;20224;-24
2023/09/08 10:19:16;;;;;;;4.10;3.70;;;;;;;23.89;64.37;97762.31;5048868;28;20254;-24
2023/09/08 10:21:45;;;;;;;5.27;4.00;;;;;;;23.89;64.39;97759.72;5042308;28;20197;-24
2023/09/08 10:24:18;;;;;;;4.43;4.00;;;;;;;23.90;64.42;97763.19;5028933;28;20217;-24
2023/09/08 10:26:46;;;;;;;4.97;4.07;;;;;;;23.89;64.50;97759.72;5043961;28;20629;-24
2023/09/08 10:29:13;;;;;;;4.13;3.73;;;;;;;23.87;64.12;97760.53;5027911;28;20289;-24
2023/09/08 10:31:40;;;;;;;4.13;3.73;;;;;;;23.90;64.63;97753.78;5026514;28;20735;-25
2023/09/08 10:34:06;;;;;;;5.53;4.17;;;;;;;23.90;64.00;97756.34;5032200;28;20207;-24
2023/09/08 10:36:34;;;;;;;4.50;3.97;;;;;;;23.89;64.48;97757.16;5046503;28;20193;-24
2023/09/08 10:39:35;;;;;;;5.20;4.20;;;;;;;23.88;64.40;97758.00;5012224;28;20676;-24
2023/09/08 10:42:17;;;;;;;5.17;3.23;;;;;;;23.88;64.22;97755.44;5050686;28;20267;-24
2023/09/08 10:44:47;;;;;;;7.43;3.80;;;;;;;23.88;64.11;97757.13;5040631;28;20240;-24
2023/09/08 10:47:14;;;;;;;4.93;4.03;;;;;;;23.87;64.15;97752.84;5046881;28;20228;-24
2023/09/08 10:49:40;;;;;;;4.07;3.77;;;;;;;23.87;64.20;97757.97;5048926;28;20236;-24
2023/09/08 10:52:08;;;;;;;7.47;4.00;;;;;;;23.86;64.29;97753.69;5047737;28;20663;-24
2023/09/08 10:54:42;;;;;;;4.20;3.80;;;;;;;23.86;64.24;97751.97;5037742;28;20260;-24
2023/09/08 10:57:19;;;;;;;4.10;3.57;;;;;;;23.86;64.33;97740.84;5049000;28;20213;-24
2023/09/08 11:00:01;;;;;;;5.40;3.93;;;;;;;23.87;64.27;97745.13;5036016;28;20200;-24
2023/09/08 11:02:50;;;;;;;4.10;3.70;;;;;;;23.86;64.28;97739.13;5044726;28;20228;-24
2023/09/08 11:05:19;;;;;;;4.33;3.93;;;;;;;23.86;64.53;97738.28;5050786;28;20212;-24
2023/09/08 11:07:49;;;;;;;4.10;3.53;;;;;;;23.86;64.57;97738.28;5043434;28;20722;-24
2023/09/08 11:10:16;;;;;;;4.73;3.77;;;;;;;23.86;64.35;97738.28;5053683;28;20205;-24
2023/09/08 11:12:42;;;;;;;4.57;3.83;;;;;;;23.85;65.06;97734.84;5043267;28;20258;-23
2023/09/08 11:15:09;;;;;;;4.90;3.87;;;;;;;23.85;64.50;97734.84;5050143;28;20608;-24
2023/09/08 11:17:39;;;;;;;4.27;3.40;;;;;;;23.86;64.58;97740.84;5046089;28;20221;-24
2023/09/08 11:20:09;;;;;;;4.10;3.80;;;;;;;23.85;64.72;97732.25;5048237;28;20192;-33
2023/09/08 11:22:37;;;;;;;3.90;3.50;;;;;;;23.85;64.62;97729.69;5044345;28;20617;-29
2023/09/08 11:25:05;;;;;;;4.33;3.80;;;;;;;23.80;64.35;97725.31;5047181;28;20288;-26
2023/09/08 11:27:32;;;;;;;4.23;3.83;;;;;;;23.85;64.64;97727.13;5011305;28;20233;-27
2023/09/08 11:29:59;;;;;;;4.27;3.60;;;;;;;23.72;64.39;97707.16;5050326;28;20203;-24
2023/09/08 11:32:31;;;;;;;4.30;3.90;;;;;;;23.85;64.42;97734.84;5034079;28;20641;-24
2023/09/08 11:35:10;;;;;;;4.40;3.83;;;;;;;23.86;64.65;97735.72;5035472;28;20254;-24